Time;durP1;ratioP1;P1;durP2;ratioP2;P2;SDS_P1;SDS_P2;PMS_P1;PMS_P2;Temp;Humidity;BMP_temperature;BMP_pressure;BME280_temperature;BME280_humidity;BME280_pressure;Samples;Min_cycle;Max_cycle;Signal;HPM_P1;HPM_P2
2024/01/15 00:00:04;;;;;;;10.88;6.95;;;;;;;;;;5051262;28;20040;-52
2024/01/15 00:02:30;;;;;;;9.65;7.18;;;;;;;;;;5048952;28;20047;-52
2024/01/15 00:04:56;;;;;;;10.77;7.60;;;;;;;;;;5051196;28;20029;-48
2024/01/15 00:07:22;;;;;;;11.60;8.30;;;;;;;;;;5050665;28;20029;-49
2024/01/15 00:09:48;;;;;;;12.20;8.43;;;;;;;;;;5048903;28;20033;-52
2024/01/15 00:12:14;;;;;;;13.32;8.63;;;;;;;;;;5051236;28;20037;-48
2024/01/15 00:14:40;;;;;;;11.40;7.78;;;;;;;;;;5051012;28;20032;-51
2024/01/15 00:17:06;;;;;;;9.32;5.30;;;;;;;;;;5049868;28;20037;-48
2024/01/15 00:19:32;;;;;;;11.30;5.70;;;;;;;;;;5050420;28;20464;-53
2024/01/15 00:21:59;;;;;;;8.52;4.70;;;;;;;;;;5050713;28;20028;-49
2024/01/15 00:24:25;;;;;;;6.00;3.60;;;;;;;;;;5051355;28;20029;-47
2024/01/15 00:26:51;;;;;;;4.38;2.97;;;3.10;99.90;;;;;;5055826;28;20060;-51
2024/01/15 00:29:16;;;;;;;6.13;3.83;;;3.00;99.90;;;;;;5070842;28;20118;-49
2024/01/15 00:31:42;;;;;;;7.05;4.15;;;3.10;99.90;;;;;;5070944;28;20702;-49
2024/01/15 00:34:08;;;;;;;3.95;2.53;;;3.00;99.90;;;;;;5070836;28;20195;-45
2024/01/15 00:36:34;;;;;;;5.93;3.42;;;3.00;99.90;;;;;;5070445;28;20045;-48
2024/01/15 00:38:59;;;;;;;6.00;4.55;;;3.10;99.90;;;;;;5070665;28;20050;-50
2024/01/15 00:41:27;;;;;;;5.72;3.95;;;;;;;;;;5070522;28;20031;-46
2024/01/15 00:43:53;;;;;;;3.47;2.65;;;3.70;99.90;;;;;;5070686;28;20043;-51
2024/01/15 00:46:19;;;;;;;4.95;3.30;;;3.70;99.90;;;;;;5070431;28;20032;-46
2024/01/15 00:48:45;;;;;;;9.70;5.82;;;;;;;;;;5068206;28;20063;-48
2024/01/15 00:51:10;;;;;;;8.02;5.68;;;3.70;99.90;;;;;;5070388;28;20032;-47
2024/01/15 00:53:36;;;;;;;7.03;4.55;;;;;;;;;;5070492;28;20078;-48
2024/01/15 00:56:03;;;;;;;8.07;5.18;;;;;;;;;;5068096;28;20044;-47
2024/01/15 00:58:29;;;;;;;11.55;7.40;;;;;;;;;;5070589;28;20115;-46
2024/01/15 01:00:55;;;;;;;7.03;4.28;;;;;;;;;;5070510;28;20107;-48
2024/01/15 01:03:21;;;;;;;5.40;3.47;;;;;;;;;;5070286;28;20025;-48
2024/01/15 01:05:50;;;;;;;6.70;3.75;;;3.10;99.90;;;;;;5070522;28;20102;-50
2024/01/15 01:08:16;;;;;;;5.13;3.13;;;2.80;99.90;;;;;;5068076;28;20384;-47
2024/01/15 01:10:42;;;;;;;10.15;6.85;;;2.80;99.90;;;;;;5070366;28;20115;-50
2024/01/15 01:13:09;;;;;;;12.88;6.47;;;;;;;;;;5070614;28;20033;-50
2024/01/15 01:15:34;;;;;;;10.38;6.97;;;3.10;99.90;;;;;;5070071;28;20040;-48
2024/01/15 01:18:00;;;;;;;12.95;7.05;;;3.00;99.90;;;;;;5071315;28;20025;-49
2024/01/15 01:20:26;;;;;;;9.85;5.57;;;;;;;;;;5071670;28;20079;-48
2024/01/15 01:22:52;;;;;;;12.43;7.75;;;2.70;99.90;;;;;;5038352;28;20123;-45
2024/01/15 01:25:18;;;;;;;13.07;8.25;;;;;;;;;;5074272;28;20598;-44
2024/01/15 01:27:43;;;;;;;13.52;7.38;;;2.80;99.90;;;;;;5074198;28;20020;-51
2024/01/15 01:30:09;;;;;;;16.23;8.82;;;2.70;99.90;;;;;;5073919;28;20028;-50
2024/01/15 01:32:35;;;;;;;11.20;7.70;;;2.80;99.90;;;;;;5071566;28;20106;-49
2024/01/15 01:35:01;;;;;;;10.27;5.72;;;2.80;99.90;;;;;;5074069;28;20033;-50
2024/01/15 01:37:27;;;;;;;10.95;6.65;;;2.90;99.90;;;;;;5073642;28;20041;-47
2024/01/15 01:39:53;;;;;;;12.35;7.13;;;;;;;;;;5073714;28;20027;-50
2024/01/15 01:42:18;;;;;;;16.60;9.30;;;3.10;99.90;;;;;;5073742;28;20032;-49
2024/01/15 01:44:44;;;;;;;7.72;5.53;;;3.10;99.90;;;;;;5073703;28;20021;-47
2024/01/15 01:47:10;;;;;;;11.27;7.82;;;;;;;;;;5073488;28;20108;-47
2024/01/15 01:49:38;;;;;;;10.93;7.50;;;3.20;99.90;;;;;;5073650;28;20090;-46
2024/01/15 01:52:07;;;;;;;9.45;6.75;;;;;;;;;;5073898;28;20028;-49
2024/01/15 01:54:33;;;;;;;7.97;5.88;;;3.10;99.90;;;;;;5070996;28;20036;-48
2024/01/15 01:57:01;;;;;;;8.10;6.05;;;3.10;99.90;;;;;;5073449;28;20036;-46
2024/01/15 01:59:27;;;;;;;10.02;6.95;;;3.30;99.90;;;;;;5073440;28;20090;-49
2024/01/15 02:01:55;;;;;;;9.55;6.63;;;3.50;99.90;;;;;;5073188;28;20025;-48
2024/01/15 02:04:24;;;;;;;8.85;6.75;;;3.60;99.90;;;;;;5073322;28;20020;-46
2024/01/15 02:06:51;;;;;;;11.40;8.10;;;3.60;99.90;;;;;;5073136;28;20404;-46
2024/01/15 02:09:18;;;;;;;9.93;7.10;;;3.10;99.90;;;;;;5073085;28;20026;-50
2024/01/15 02:11:44;;;;;;;9.52;6.45;;;;;;;;;;5073399;28;20032;-52
2024/01/15 02:14:10;;;;;;;9.50;6.60;;;3.50;99.90;;;;;;5073067;28;20043;-47
2024/01/15 02:16:36;;;;;;;8.68;6.40;;;3.50;99.90;;;;;;5073267;28;20028;-51
2024/01/15 02:19:01;;;;;;;8.48;5.25;;;3.40;99.90;;;;;;5070664;28;20101;-51
2024/01/15 02:21:28;;;;;;;8.10;5.65;;;3.50;99.90;;;;;;5070366;28;20123;-50
2024/01/15 02:23:55;;;;;;;7.20;4.45;;;3.40;99.90;;;;;;5072813;28;20081;-48
2024/01/15 02:26:21;;;;;;;7.10;4.75;;;3.10;99.90;;;;;;5072976;28;20395;-49
2024/01/15 02:28:48;;;;;;;6.38;4.60;;;3.10;99.90;;;;;;5072786;28;20025;-48
2024/01/15 02:31:13;;;;;;;6.95;4.68;;;3.00;99.90;;;;;;5072783;28;20032;-51
2024/01/15 02:33:39;;;;;;;7.22;4.47;;;3.00;99.90;;;;;;5072776;28;20430;-52
2024/01/15 02:36:05;;;;;;;7.03;4.90;;;3.00;99.90;;;;;;5072808;28;20036;-51
2024/01/15 02:38:31;;;;;;;8.85;6.32;;;3.00;99.90;;;;;;5072933;28;20024;-44
2024/01/15 02:40:57;;;;;;;9.45;5.63;;;2.90;99.90;;;;;;5072676;28;20040;-49
2024/01/15 02:43:23;;;;;;;10.88;6.78;;;2.90;99.90;;;;;;5070322;28;20059;-48
2024/01/15 02:45:49;;;;;;;12.90;7.35;;;;;;;;;;5072880;28;20035;-49
2024/01/15 02:48:15;;;;;;;15.25;8.25;;;;;;;;;;5070062;28;20045;-49
2024/01/15 02:50:41;;;;;;;14.75;9.20;;;2.50;99.90;;;;;;5070190;28;20047;-49
2024/01/15 02:53:06;;;;;;;15.23;9.80;;;2.60;99.90;;;;;;5070061;28;20032;-50
2024/01/15 02:55:32;;;;;;;12.73;8.02;;;2.60;99.90;;;;;;5072392;28;20480;-50
2024/01/15 02:57:58;;;;;;;11.43;6.88;;;2.60;99.90;;;;;;5072293;28;20052;-49
2024/01/15 03:00:23;;;;;;;10.85;7.47;;;2.70;99.90;;;;;;5072570;28;20498;-50
2024/01/15 03:02:51;;;;;;;9.43;7.03;;;2.70;99.90;;;;;;5072313;28;20021;-45
2024/01/15 03:05:17;;;;;;;9.60;7.03;;;2.90;99.90;;;;;;5053156;28;20086;-50
2024/01/15 03:07:43;;;;;;;9.30;6.30;;;2.90;99.90;;;;;;5072139;28;20036;-46
2024/01/15 03:10:09;;;;;;;9.65;6.30;;;3.00;99.90;;;;;;5072391;28;20035;-51
2024/01/15 03:12:35;;;;;;;9.38;5.85;;;3.00;99.90;;;;;;5072308;28;20029;-52
2024/01/15 03:15:01;;;;;;;6.68;4.97;;;3.10;99.90;;;;;;5071860;28;20071;-46
2024/01/15 03:17:27;;;;;;;8.00;5.43;;;3.20;99.90;;;;;;5071825;28;20073;-52
2024/01/15 03:19:52;;;;;;;10.82;7.05;;;3.30;99.90;;;;;;5072440;28;20028;-50
2024/01/15 03:22:18;;;;;;;20.10;14.65;;;3.00;99.90;;;;;;5071661;28;20542;-48
2024/01/15 03:24:44;;;;;;;18.60;12.63;;;2.90;99.90;;;;;;5072209;28;20028;-47
2024/01/15 03:27:10;;;;;;;24.98;16.20;;;2.70;99.90;;;;;;5071780;28;20028;-52
2024/01/15 03:29:36;;;;;;;72.22;37.58;;;2.80;99.90;;;;;;5071722;28;20444;-45
2024/01/15 03:32:01;;;;;;;54.05;25.60;;;2.70;99.90;;;;;;5071560;28;20115;-50
2024/01/15 03:34:28;;;;;;;30.90;16.92;;;;;;;;;;5071560;28;20025;-50
2024/01/15 03:36:54;;;;;;;21.10;12.68;;;;;;;;;;5069177;28;20064;-49
2024/01/15 03:39:19;;;;;;;12.02;8.43;;;2.60;99.90;;;;;;5071307;28;20016;-49
2024/01/15 03:41:45;;;;;;;11.00;7.32;;;2.70;99.90;;;;;;5034893;28;20047;-50
2024/01/15 03:44:11;;;;;;;11.55;8.00;;;;;;;;;;5070509;28;20036;-44
2024/01/15 03:46:37;;;;;;;10.73;6.93;;;3.40;99.90;;;;;;5070925;28;20067;-48
2024/01/15 03:49:03;;;;;;;14.00;8.10;;;3.30;99.90;;;;;;5071222;28;20066;-46
2024/01/15 03:51:28;;;;;;;24.92;15.95;;;3.50;99.90;;;;;;5052195;28;20043;-47
2024/01/15 03:53:54;;;;;;;15.50;10.23;;;3.20;99.90;;;;;;5071624;28;20024;-47
2024/01/15 03:56:20;;;;;;;21.70;14.32;;;3.20;99.90;;;;;;5070925;28;20143;-51
2024/01/15 03:58:45;;;;;;;22.48;13.32;;;3.20;99.90;;;;;;5056616;28;20115;-47
2024/01/15 04:01:12;;;;;;;15.02;9.98;;;3.40;99.90;;;;;;5051050;28;20376;-50
2024/01/15 04:03:38;;;;;;;17.90;11.18;;;3.40;99.90;;;;;;5051187;28;20103;-51
2024/01/15 04:06:04;;;;;;;14.65;9.48;;;3.50;99.90;;;;;;5051061;28;20021;-52
2024/01/15 04:08:30;;;;;;;11.35;5.80;;;;;;;;;;5051328;28;20040;-49
2024/01/15 04:10:56;;;;;;;18.33;10.13;;;3.20;99.90;;;;;;5050935;28;20032;-50
2024/01/15 04:13:22;;;;;;;20.00;10.98;;;3.10;99.90;;;;;;5050757;28;20041;-50
2024/01/15 04:15:48;;;;;;;18.77;10.82;;;3.30;99.90;;;;;;5050815;28;20048;-49
2024/01/15 04:18:15;;;;;;;15.40;9.63;;;3.40;99.90;;;;;;4982732;28;20037;-47
2024/01/15 04:20:41;;;;;;;18.95;10.70;;;3.60;99.90;;;;;;5032273;28;20045;-49
2024/01/15 04:23:07;;;;;;;30.75;15.80;;;3.70;99.90;;;;;;5050859;28;20087;-47
2024/01/15 04:25:33;;;;;;;22.85;11.70;;;3.60;99.90;;;;;;5051095;28;20055;-46
2024/01/15 04:27:59;;;;;;;52.13;24.35;;;3.60;99.90;;;;;;5050773;28;20054;-47
2024/01/15 04:30:24;;;;;;;43.75;18.85;;;3.60;99.90;;;;;;5031733;28;20128;-50
2024/01/15 04:32:50;;;;;;;47.63;22.27;;;3.60;99.90;;;;;;5050849;28;20025;-46
2024/01/15 04:35:16;;;;;;;46.70;22.98;;;3.70;99.90;;;;;;5031589;28;20404;-51
2024/01/15 04:37:42;;;;;;;38.20;19.67;;;3.70;99.90;;;;;;5050995;28;20037;-50
2024/01/15 04:40:08;;;;;;;68.60;32.92;;;;;;;;;;4982497;28;20043;-52
2024/01/15 04:42:34;;;;;;;40.13;19.48;;;3.80;99.90;;;;;;4982575;28;20041;-46
2024/01/15 04:45:00;;;;;;;26.55;15.13;;;3.70;99.90;;;;;;5031740;28;20036;-51
2024/01/15 04:47:26;;;;;;;17.10;8.77;;;3.70;99.90;;;;;;5050363;28;20102;-46
2024/01/15 04:49:51;;;;;;;27.40;13.88;;;3.70;99.90;;;;;;5049524;28;20033;-48
2024/01/15 04:52:17;;;;;;;40.78;21.50;;;3.60;99.90;;;;;;5065479;28;20025;-52
2024/01/15 04:54:43;;;;;;;16.67;10.38;;;;;;;;;;5022181;28;20036;-48
2024/01/15 04:57:09;;;;;;;16.67;9.52;;;3.60;99.90;;;;;;5074470;28;20028;-50
2024/01/15 04:59:35;;;;;;;14.55;8.40;;;3.80;99.90;;;;;;5055535;28;20033;-49
2024/01/15 05:02:00;;;;;;;12.98;9.15;;;3.80;99.90;;;;;;5074523;28;20044;-52
2024/01/15 05:04:26;;;;;;;14.18;9.68;;;3.70;99.90;;;;;;5055430;28;20044;-48
2024/01/15 05:06:52;;;;;;;13.80;9.13;;;3.80;99.90;;;;;;5074646;28;20194;-47
2024/01/15 05:09:18;;;;;;;10.93;8.35;;;3.50;99.90;;;;;;5074686;28;20153;-46
2024/01/15 05:11:44;;;;;;;11.05;8.05;;;3.30;99.90;;;;;;5074561;28;20484;-49
2024/01/15 05:14:10;;;;;;;10.05;7.55;;;3.20;99.90;;;;;;5074109;28;20060;-45
2024/01/15 05:16:38;;;;;;;11.90;7.75;;;3.20;99.90;;;;;;5064963;28;20033;-47
2024/01/15 05:19:04;;;;;;;13.93;7.90;;;3.00;99.90;;;;;;5035189;28;20517;-49
2024/01/15 05:21:30;;;;;;;11.23;7.95;;;3.00;99.90;;;;;;5054296;28;20136;-48
2024/01/15 05:23:55;;;;;;;13.23;9.50;;;2.90;99.90;;;;;;5064179;28;20031;-47
2024/01/15 05:26:21;;;;;;;14.52;8.80;;;2.80;99.90;;;;;;5055006;28;20127;-50
2024/01/15 05:28:47;;;;;;;15.27;9.68;;;2.80;99.90;;;;;;5069103;28;20132;-49
2024/01/15 05:31:13;;;;;;;31.63;18.02;;;2.70;99.90;;;;;;5073609;28;20036;-48
2024/01/15 05:33:40;;;;;;;32.20;18.02;;;;;;;;;;5073867;28;20028;-48
2024/01/15 05:36:06;;;;;;;18.60;12.70;;;;;;;;;;5073509;28;20036;-48
2024/01/15 05:38:32;;;;;;;14.05;8.95;;;;;;;;;;5038247;28;20464;-49
2024/01/15 05:40:58;;;;;;;17.02;11.10;;;;;;;;;;5054653;28;20041;-47
2024/01/15 05:43:24;;;;;;;15.95;10.95;;;;;;;;;;5073897;28;20035;-51
2024/01/15 05:45:50;;;;;;;20.50;12.98;;;2.80;99.90;;;;;;5054724;28;20035;-50
2024/01/15 05:48:16;;;;;;;38.72;29.25;;;2.70;99.90;;;;;;5054336;28;20423;-50
2024/01/15 05:50:42;;;;;;;26.38;19.65;;;2.70;99.90;;;;;;5054490;28;20036;-49
2024/01/15 05:53:07;;;;;;;26.70;17.98;;;2.80;99.90;;;;;;5064345;28;20116;-47
2024/01/15 05:55:35;;;;;;;19.45;14.35;;;2.80;99.90;;;;;;5034526;28;20120;-49
2024/01/15 05:58:00;;;;;;;18.17;12.45;;;2.90;99.90;;;;;;5054006;28;20090;-49
2024/01/15 06:00:26;;;;;;;17.77;10.77;;;2.80;99.90;;;;;;5055747;28;20029;-51
2024/01/15 06:02:52;;;;;;;15.20;10.10;;;2.80;99.90;;;;;;5072920;28;20035;-47
2024/01/15 06:05:18;;;;;;;12.57;8.55;;;3.00;99.90;;;;;;5072444;28;20028;-48
2024/01/15 06:07:43;;;;;;;12.10;8.10;;;3.10;99.90;;;;;;5073293;28;20537;-51
2024/01/15 06:10:09;;;;;;;15.45;8.75;;;3.30;99.90;;;;;;5073248;28;20036;-48
2024/01/15 06:12:35;;;;;;;12.50;8.43;;;3.40;99.90;;;;;;5060414;28;20028;-48
2024/01/15 06:15:01;;;;;;;11.45;7.38;;;3.40;99.90;;;;;;5053383;28;20087;-49
2024/01/15 06:17:26;;;;;;;10.63;7.35;;;3.40;99.90;;;;;;5047317;28;20102;-51
2024/01/15 06:19:52;;;;;;;9.73;7.45;;;3.50;99.90;;;;;;5073080;28;20368;-48
2024/01/15 06:22:19;;;;;;;8.23;5.78;;;3.70;99.90;;;;;;5070122;28;20025;-47
2024/01/15 06:24:45;;;;;;;9.30;6.32;;;3.80;99.90;;;;;;5072810;28;20059;-47
2024/01/15 06:27:11;;;;;;;8.50;6.25;;;3.90;99.90;;;;;;5072957;28;20476;-50
2024/01/15 06:29:38;;;;;;;9.45;6.35;;;;;;;;;;5052380;28;20036;-50
2024/01/15 06:32:04;;;;;;;10.13;7.20;;;;;;;;;;5062970;28;20032;-48
2024/01/15 06:34:30;;;;;;;9.68;6.88;;;3.80;99.90;;;;;;5024901;28;20049;-47
2024/01/15 06:36:56;;;;;;;9.70;5.93;;;3.70;99.90;;;;;;5045826;28;20054;-47
2024/01/15 06:39:22;;;;;;;9.63;6.65;;;3.60;99.90;;;;;;5061565;28;20033;-50
2024/01/15 06:41:47;;;;;;;10.90;7.82;;;3.60;99.90;;;;;;5061106;28;20025;-51
2024/01/15 06:44:13;;;;;;;11.68;7.43;;;3.60;99.90;;;;;;5063866;28;20174;-49
2024/01/15 06:46:43;;;;;;;20.92;12.95;;;3.80;99.90;;;;;;5061029;28;20743;-46
2024/01/15 06:49:09;;;;;;;17.83;10.82;;;3.90;99.90;;;;;;5061427;28;20032;-50
2024/01/15 06:51:35;;;;;;;14.32;10.35;;;4.80;99.90;;;;;;5072448;28;20054;-50
2024/01/15 06:54:01;;;;;;;12.50;8.23;;;3.70;99.90;;;;;;5072525;28;20111;-47
2024/01/15 06:56:27;;;;;;;9.65;6.97;;;3.70;99.90;;;;;;5053219;28;20055;-48
2024/01/15 06:58:53;;;;;;;10.80;7.03;;;3.80;99.90;;;;;;5072328;28;20119;-50
2024/01/15 07:01:19;;;;;;;9.02;6.82;;;3.90;99.90;;;;;;5072767;28;20029;-49
2024/01/15 07:03:44;;;;;;;9.95;7.13;;;4.00;99.90;;;;;;5072221;28;20029;-48
2024/01/15 07:06:11;;;;;;;10.25;6.85;;;4.00;99.90;;;;;;5072218;28;20036;-50
2024/01/15 07:08:38;;;;;;;10.40;6.70;;;4.20;99.90;;;;;;5060832;28;20067;-48
2024/01/15 07:11:04;;;;;;;9.88;7.03;;;;;;;;;;5063519;28;20029;-49
2024/01/15 07:13:30;;;;;;;11.27;7.63;;;4.40;99.90;;;;;;5072623;28;20123;-48
2024/01/15 07:15:56;;;;;;;11.35;7.43;;;4.50;99.90;;;;;;5070811;28;20028;-49
2024/01/15 07:18:22;;;;;;;12.90;8.35;;;4.40;99.90;;;;;;5071212;28;20126;-49
2024/01/15 07:20:47;;;;;;;13.77;9.55;;;4.40;99.90;;;;;;5067615;28;20109;-49
2024/01/15 07:23:13;;;;;;;13.77;8.38;;;4.50;99.90;;;;;;5066568;28;20055;-48
2024/01/15 07:25:39;;;;;;;12.02;8.35;;;4.50;99.90;;;;;;5071943;28;20019;-49
2024/01/15 07:28:05;;;;;;;12.65;8.98;;;4.50;99.90;;;;;;5071974;28;20413;-48
2024/01/15 07:30:31;;;;;;;12.48;8.80;;;4.60;99.90;;;;;;5034134;28;20048;-49
2024/01/15 07:32:57;;;;;;;13.38;9.85;;;;;;;;;;5052657;28;20124;-49
2024/01/15 07:35:23;;;;;;;17.80;13.23;;;;;;;;;;5071200;28;20025;-50
2024/01/15 07:37:48;;;;;;;17.88;10.80;;;5.00;99.90;;;;;;5062998;28;20119;-48
2024/01/15 07:40:15;;;;;;;13.95;10.02;;;;;;;;;;5061278;28;20124;-48
2024/01/15 07:42:42;;;;;;;18.15;12.15;;;;;;;;;;5061755;28;20024;-49
2024/01/15 07:45:08;;;;;;;22.05;13.35;;;5.30;99.90;;;;;;5060039;28;20029;-49
2024/01/15 07:47:35;;;;;;;21.50;13.70;;;;;;;;;;5026785;28;20148;-48
2024/01/15 07:50:01;;;;;;;26.85;16.60;;;;;;;;;;5060537;28;20032;-48
2024/01/15 07:52:27;;;;;;;31.02;18.17;;;;;;;;;;5060656;28;20019;-49
2024/01/15 07:54:53;;;;;;;28.23;18.65;;;4.70;99.90;;;;;;5042637;28;20040;-48
2024/01/15 07:57:18;;;;;;;27.75;18.48;;;5.10;99.90;;;;;;5067451;28;20046;-48
2024/01/15 07:59:44;;;;;;;29.02;18.55;;;5.10;99.90;;;;;;5071685;28;20158;-48
2024/01/15 08:02:10;;;;;;;26.25;18.17;;;5.10;99.90;;;;;;5002714;28;20037;-48
2024/01/15 08:04:38;;;;;;;22.05;15.55;;;;;;;;;;5071009;28;20090;-49
2024/01/15 08:07:05;;;;;;;16.88;12.23;;;5.40;99.90;;;;;;5051375;28;20036;-48
2024/01/15 08:09:31;;;;;;;16.30;11.68;;;5.50;99.90;;;;;;5051070;28;20479;-48
2024/01/15 08:11:57;;;;;;;16.25;12.38;;;;;;;;;;5051268;28;20056;-49
2024/01/15 08:14:23;;;;;;;25.98;18.17;;;;;;;;;;5051073;28;20438;-48
2024/01/15 08:16:49;;;;;;;29.00;20.95;;;;;;;;;;5051009;28;20361;-49
2024/01/15 08:19:15;;;;;;;19.17;12.73;;;;;;;;;;5062206;28;20474;-48
2024/01/15 08:21:41;;;;;;;17.63;11.75;;;5.80;99.90;;;;;;5069401;28;20035;-49
2024/01/15 08:24:09;;;;;;;18.17;13.88;;;;;;;;;;5058126;28;20047;-51
2024/01/15 08:26:35;;;;;;;22.35;17.73;;;;;;;;;;5068773;28;20043;-49
2024/01/15 08:29:01;;;;;;;32.35;22.10;;;;;;;;;;5069679;28;20089;-50
2024/01/15 08:31:27;;;;;;;48.38;32.63;;;5.50;99.90;;;;;;5069612;28;20099;-51
2024/01/15 08:33:53;;;;;;;32.67;22.40;;;;;;;;;;5069205;28;20036;-50
2024/01/15 08:36:19;;;;;;;45.80;28.63;;;5.70;99.90;;;;;;5069143;28;20036;-49
2024/01/15 08:38:44;;;;;;;63.60;42.47;;;5.70;99.90;;;;;;5066646;28;20446;-49
2024/01/15 08:41:11;;;;;;;41.47;29.92;;;;;;;;;;5068826;28;20101;-50
2024/01/15 08:43:36;;;;;;;32.13;21.25;;;5.30;99.90;;;;;;5067262;28;20032;-49
2024/01/15 08:46:03;;;;;;;35.88;25.00;;;5.40;99.90;;;;;;5031830;28;20048;-48
2024/01/15 08:48:29;;;;;;;47.72;31.05;;;5.60;99.90;;;;;;5068784;28;20059;-48
2024/01/15 08:50:56;;;;;;;40.33;30.38;;;;;;;;;;5016948;28;20064;-48
2024/01/15 08:53:23;;;;;;;65.20;38.72;;;;;;;;;;5051216;28;20121;-49
2024/01/15 08:55:49;;;;;;;54.13;35.00;;;;;;;;;;5066189;28;20086;-48
2024/01/15 08:58:15;;;;;;;36.78;25.70;;;;;;;;;;5067213;28;20528;-49
2024/01/15 09:00:41;;;;;;;65.15;36.67;;;6.80;99.90;;;;;;5068479;28;20064;-49
2024/01/15 09:03:10;;;;;;;44.80;30.45;;;6.50;99.90;;;;;;5044986;28;20033;-49
2024/01/15 09:05:36;;;;;;;51.58;34.17;;;6.80;99.90;;;;;;5047050;28;20076;-49
2024/01/15 09:08:02;;;;;;;65.70;42.05;;;;;;;;;;5030843;28;20483;-49
2024/01/15 09:10:28;;;;;;;72.57;46.60;;;;;;;;;;5068012;28;20033;-48
2024/01/15 09:12:54;;;;;;;65.18;42.78;;;7.20;99.90;;;;;;5065931;28;20039;-49
2024/01/15 09:15:20;;;;;;;83.70;53.22;;;7.30;99.90;;;;;;5043831;28;20131;-48
2024/01/15 09:17:46;;;;;;;95.57;60.65;;;7.30;99.90;;;;;;5062249;28;20499;-48
2024/01/15 09:20:11;;;;;;;86.18;58.45;;;7.40;99.90;;;;;;5065888;28;20021;-47
2024/01/15 09:22:41;;;;;;;150.25;85.25;;;;;;;;;;5065813;28;20032;-48
2024/01/15 09:25:09;;;;;;;109.85;73.60;;;8.20;99.90;;;;;;5065281;28;20124;-50
2024/01/15 09:27:35;;;;;;;106.43;72.38;;;;;;;;;;4998145;28;20076;-49
2024/01/15 09:30:02;;;;;;;102.00;66.80;;;;;;;;;;5068421;28;20040;-49
2024/01/15 09:32:28;;;;;;;101.82;67.20;;;10.90;99.90;;;;;;5067928;28;20036;-48
2024/01/15 09:34:53;;;;;;;97.10;64.70;;;10.60;99.90;;;;;;5046392;28;20127;-48
2024/01/15 09:37:19;;;;;;;93.22;63.78;;;10.50;97.20;;;;;;5066089;28;20048;-49
2024/01/15 09:39:45;;;;;;;84.88;57.03;;;10.30;96.40;;;;;;5069757;28;20036;-48
2024/01/15 09:42:11;;;;;;;83.55;58.00;;;10.20;96.40;;;;;;5068045;28;20086;-49
2024/01/15 09:44:37;;;;;;;83.32;57.30;;;10.20;99.90;;;;;;5071844;28;20039;-49
2024/01/15 09:47:04;;;;;;;74.50;55.65;;;10.20;99.90;;;;;;5072360;28;20052;-50
2024/01/15 09:49:30;;;;;;;87.65;56.05;;;10.30;96.70;;;;;;5050936;28;20037;-50
2024/01/15 09:51:57;;;;;;;72.50;51.60;;;;;;;;;;5070336;28;20438;-49
2024/01/15 09:54:23;;;;;;;99.57;66.20;;;;;;;;;;5070132;28;20089;-48
2024/01/15 09:56:50;;;;;;;81.03;59.53;;;10.00;99.90;;;;;;5071760;28;20044;-49
2024/01/15 09:59:18;;;;;;;102.95;70.95;;;10.30;96.20;;;;;;5071644;28;20041;-49
2024/01/15 10:01:45;;;;;;;103.43;70.00;;;10.20;96.10;;;;;;5071005;28;20028;-50
2024/01/15 10:04:14;;;;;;;111.90;73.25;;;10.10;97.50;;;;;;5035841;28;20039;-49
2024/01/15 10:06:48;;;;;;;106.85;72.57;;;9.50;97.20;;;;;;5071215;28;20109;-49
2024/01/15 10:09:17;;;;;;;98.63;67.97;;;9.20;98.00;;;;;;5031178;28;20430;-50
2024/01/15 10:11:43;;;;;;;116.20;75.07;;;;;;;;;;5070756;28;20067;-49
2024/01/15 10:14:12;;;;;;;104.07;74.20;;;8.80;97.90;;;;;;5066302;28;20032;-49
2024/01/15 10:16:42;;;;;;;97.35;69.32;;;8.80;98.50;;;;;;5071394;28;20444;-49
2024/01/15 10:19:08;;;;;;;98.80;68.93;;;8.80;98.40;;;;;;5064481;28;20032;-48
2024/01/15 10:21:35;;;;;;;92.10;66.80;;;8.80;98.50;;;;;;5068803;28;20437;-50
2024/01/15 10:24:02;;;;;;;83.95;62.05;;;;;;;;;;5051939;28;20040;-49
2024/01/15 10:26:28;;;;;;;76.10;55.03;;;8.30;99.20;;;;;;5070539;28;20042;-48
2024/01/15 10:28:54;;;;;;;74.43;55.25;;;8.40;99.50;;;;;;5068757;28;20491;-49
2024/01/15 10:31:21;;;;;;;82.75;60.72;;;8.30;99.90;;;;;;5070855;28;20066;-51
2024/01/15 10:33:48;;;;;;;89.18;60.75;;;;;;;;;;5070447;28;20113;-50
2024/01/15 10:36:16;;;;;;;83.50;61.20;;;8.30;99.90;;;;;;5070568;28;20045;-49
2024/01/15 10:38:43;;;;;;;79.70;60.10;;;8.30;99.90;;;;;;5069089;28;20036;-49
2024/01/15 10:41:10;;;;;;;89.93;64.53;;;8.70;99.90;;;;;;5070949;28;20403;-48
2024/01/15 10:43:35;;;;;;;89.38;65.38;;;8.60;99.90;;;;;;5066764;28;20476;-48
2024/01/15 10:46:02;;;;;;;82.78;59.88;;;8.50;99.90;;;;;;5068310;28;20033;-49
2024/01/15 10:48:30;;;;;;;84.90;62.20;;;;;;;;;;5069740;28;20415;-49
2024/01/15 10:50:58;;;;;;;78.05;57.88;;;;;;;;;;5069923;28;20028;-49
2024/01/15 10:53:25;;;;;;;74.18;55.92;;;8.80;99.90;;;;;;5070958;28;20051;-49
2024/01/15 10:55:53;;;;;;;79.75;60.83;;;8.70;99.90;;;;;;5070605;28;20028;-49
2024/01/15 10:58:21;;;;;;;86.85;61.78;;;8.80;99.90;;;;;;5069118;28;20353;-48
2024/01/15 11:00:46;;;;;;;81.88;61.25;;;8.80;99.40;;;;;;5070881;28;20111;-48
2024/01/15 11:03:13;;;;;;;100.22;69.28;;;8.50;99.40;;;;;;5066986;28;20657;-48
2024/01/15 11:05:40;;;;;;;86.78;62.55;;;;;;;;;;5070242;28;20093;-48
2024/01/15 11:08:07;;;;;;;102.43;66.18;;;;;;;;;;5070071;28;20032;-48
2024/01/15 11:10:48;;;;;;;114.32;75.93;;;6.60;99.90;;;;;;5071092;28;20396;-49
2024/01/15 11:13:33;;;;;;;98.00;68.28;;;5.90;99.90;;;;;;4988634;28;20049;-48
2024/01/15 11:16:00;;;;;;;94.55;62.90;;;;;;;;;;4988163;28;20122;-49
2024/01/15 11:18:30;;;;;;;95.32;62.97;;;;;;;;;;4990427;28;20043;-48
2024/01/15 11:21:16;;;;;;;105.63;70.38;;;5.50;99.90;;;;;;4988425;28;20039;-48
2024/01/15 11:23:46;;;;;;;110.32;69.95;;;5.40;99.90;;;;;;4990742;28;20046;-49
2024/01/15 11:26:30;;;;;;;115.38;74.63;;;;;;;;;;4988432;28;20378;-49
2024/01/15 11:29:00;;;;;;;100.97;70.57;;;5.40;99.90;;;;;;4989460;28;20125;-48
2024/01/15 11:31:50;;;;;;;100.70;65.00;;;5.50;99.90;;;;;;4983034;28;20028;-48
2024/01/15 11:34:16;;;;;;;104.05;69.80;;;5.60;99.90;;;;;;4986180;28;20549;-48
2024/01/15 11:36:53;;;;;;;94.40;64.93;;;5.50;99.90;;;;;;4988307;28;20121;-48
2024/01/15 11:39:28;;;;;;;68.05;43.50;;;5.70;99.90;;;;;;4987547;28;20087;-48
2024/01/15 11:41:55;;;;;;;102.53;70.65;;;;;;;;;;4988132;28;20798;-49
2024/01/15 11:44:21;;;;;;;88.15;58.80;;;5.40;99.90;;;;;;5027451;28;20045;-48
2024/01/15 11:46:59;;;;;;;94.70;63.35;;;5.40;99.90;;;;;;5068810;28;20060;-50
2024/01/15 11:49:43;;;;;;;99.22;67.88;;;;;;;;;;5066669;28;20036;-48
2024/01/15 11:52:11;;;;;;;101.32;71.10;;;;;;;;;;5069519;28;20480;-49
2024/01/15 11:54:44;;;;;;;181.77;119.57;;;5.60;99.90;;;;;;5068936;28;20086;-48
2024/01/15 11:57:14;;;;;;;87.55;61.50;;;;;;;;;;5070196;28;20546;-50
2024/01/15 11:59:41;;;;;;;82.47;58.45;;;;;;;;;;5069627;28;20020;-49
2024/01/15 12:02:08;;;;;;;77.72;54.00;;;;;;;;;;5066565;28;20072;-49
2024/01/15 12:04:33;;;;;;;82.10;57.35;;;6.20;99.90;;;;;;5068264;28;20029;-49
2024/01/15 12:06:59;;;;;;;81.80;62.42;;;6.30;99.90;;;;;;5061375;28;20037;-48
2024/01/15 12:09:25;;;;;;;88.03;62.80;;;6.70;99.90;;;;;;5070021;28;20032;-49
2024/01/15 12:12:06;;;;;;;77.28;54.63;;;7.20;99.90;;;;;;5063437;28;20036;-49
2024/01/15 12:14:34;;;;;;;95.07;66.00;;;;;;;;;;5049398;28;20373;-48
2024/01/15 12:17:00;;;;;;;106.57;70.55;;;7.90;99.90;;;;;;5066022;28;20056;-49
2024/01/15 12:19:26;;;;;;;107.05;71.60;;;8.00;99.90;;;;;;5067989;28;20024;-49
2024/01/15 12:21:52;;;;;;;84.63;57.10;;;;;;;;;;5069444;28;20131;-49
2024/01/15 12:24:18;;;;;;;90.82;60.60;;;8.00;99.90;;;;;;5068310;28;20480;-49
2024/01/15 12:26:44;;;;;;;112.43;73.50;;;8.10;99.90;;;;;;5068728;28;20065;-50
2024/01/15 12:29:11;;;;;;;117.43;75.60;;;8.20;99.90;;;;;;5069376;28;20098;-49
2024/01/15 12:31:37;;;;;;;122.20;80.82;;;8.10;99.90;;;;;;5069767;28;20086;-48
2024/01/15 12:34:03;;;;;;;96.40;63.45;;;7.60;99.90;;;;;;5065699;28;20052;-49
2024/01/15 12:36:32;;;;;;;89.07;62.20;;;7.20;99.90;;;;;;5069176;28;20042;-48
2024/01/15 12:39:01;;;;;;;73.57;47.92;;;;;;;;;;5068446;28;20033;-49
2024/01/15 12:41:27;;;;;;;66.65;51.03;;;;;;;;;;5065957;28;20374;-50
2024/01/15 12:43:54;;;;;;;70.95;47.35;;;6.00;99.90;;;;;;5068086;28;20430;-50
2024/01/15 12:46:19;;;;;;;76.65;50.08;;;5.90;99.90;;;;;;5067815;28;20025;-49
2024/01/15 12:48:46;;;;;;;64.60;41.58;;;;;;;;;;5064436;28;20523;-48
2024/01/15 12:51:11;;;;;;;67.93;40.58;;;6.00;99.90;;;;;;5065547;28;20504;-49
2024/01/15 12:53:38;;;;;;;33.20;19.80;;;5.60;99.90;;;;;;5068031;28;20108;-48
2024/01/15 12:56:03;;;;;;;31.38;19.40;;;5.10;99.90;;;;;;5044557;28;20134;-48
2024/01/15 12:58:29;;;;;;;33.25;22.38;;;5.10;99.90;;;;;;5068769;28;20029;-49
2024/01/15 13:00:55;;;;;;;31.63;20.92;;;5.10;99.90;;;;;;5049281;28;20087;-50
2024/01/15 13:03:22;;;;;;;33.55;20.95;;;5.20;99.90;;;;;;5068998;28;20531;-48